sensor_id;sensor_type;location;lat;lon;timestamp;pressure;altitude;pressure_sealevel;temperature;humidity
6224;BME280;3145;42.726;23.342;2023-05-24T00:01:01;72188.22;;;-142.70;69.81
6224;BME280;3145;42.726;23.342;2023-05-24T00:03:28;72190.25;;;-142.70;70.15
6224;BME280;3145;42.726;23.342;2023-05-24T00:05:59;72190.25;;;-142.70;70.74
6224;BME280;3145;42.726;23.342;2023-05-24T00:08:26;72194.28;;;-142.70;70.35
6224;BME280;3145;42.726;23.342;2023-05-24T00:10:52;72198.31;;;-142.70;70.79
6224;BME280;3145;42.726;23.342;2023-05-24T00:13:19;72206.34;;;-142.70;71.28
6224;BME280;3145;42.726;23.342;2023-05-24T00:15:46;72214.41;;;-142.70;71.73
6224;BME280;3145;42.726;23.342;2023-05-24T00:18:14;72218.44;;;-142.70;71.89
6224;BME280;3145;42.726;23.342;2023-05-24T00:20:42;72224.50;;;-142.70;71.97
6224;BME280;3145;42.726;23.342;2023-05-24T00:23:08;72222.47;;;-142.70;71.93
6224;BME280;3145;42.726;23.342;2023-05-24T00:25:35;72222.47;;;-142.70;71.99
6224;BME280;3145;42.726;23.342;2023-05-24T00:28:02;72214.41;;;-142.70;71.74
6224;BME280;3145;42.726;23.342;2023-05-24T00:30:29;72216.44;;;-142.70;71.83
6224;BME280;3145;42.726;23.342;2023-05-24T00:32:55;72218.44;;;-142.70;71.67
6224;BME280;3145;42.726;23.342;2023-05-24T00:35:23;72224.50;;;-142.70;71.97
6224;BME280;3145;42.726;23.342;2023-05-24T00:37:50;72218.44;;;-142.70;72.11
6224;BME280;3145;42.726;23.342;2023-05-24T00:40:17;72220.47;;;-142.70;71.74
6224;BME280;3145;42.726;23.342;2023-05-24T00:42:44;72222.47;;;-142.70;71.88
6224;BME280;3145;42.726;23.342;2023-05-24T00:45:11;72232.53;;;-142.70;71.98
6224;BME280;3145;42.726;23.342;2023-05-24T00:47:37;72240.59;;;-142.70;72.42
6224;BME280;3145;42.726;23.342;2023-05-24T00:50:06;72250.69;;;-142.70;72.59
6224;BME280;3145;42.726;23.342;2023-05-24T00:52:35;72254.72;;;-142.70;72.77
6224;BME280;3145;42.726;23.342;2023-05-24T00:55:02;72252.69;;;-142.70;73.30
6224;BME280;3145;42.726;23.342;2023-05-24T00:57:29;72246.66;;;-142.70;73.38
6224;BME280;3145;42.726;23.342;2023-05-24T00:59:56;72258.72;;;-142.70;73.02
6224;BME280;3145;42.726;23.342;2023-05-24T01:02:23;72254.72;;;-142.70;73.32
6224;BME280;3145;42.726;23.342;2023-05-24T01:04:50;72254.72;;;-142.70;73.57
6224;BME280;3145;42.726;23.342;2023-05-24T01:07:22;72266.78;;;-142.70;73.51
6224;BME280;3145;42.726;23.342;2023-05-24T01:10:03;72266.78;;;-142.70;73.20
6224;BME280;3145;42.726;23.342;2023-05-24T01:12:43;72262.75;;;-142.70;73.75
6224;BME280;3145;42.726;23.342;2023-05-24T01:15:17;72264.78;;;-142.70;73.92
6224;BME280;3145;42.726;23.342;2023-05-24T01:17:52;72278.88;;;-142.70;73.63
6224;BME280;3145;42.726;23.342;2023-05-24T01:20:20;72274.84;;;-142.70;73.81
6224;BME280;3145;42.726;23.342;2023-05-24T01:23:15;72280.88;;;-142.70;73.91
6224;BME280;3145;42.726;23.342;2023-05-24T01:28:49;72303.06;;;-142.70;74.63
6224;BME280;3145;42.726;23.342;2023-05-24T01:31:17;72295.00;;;-142.70;74.69
6224;BME280;3145;42.726;23.342;2023-05-24T01:33:44;72290.97;;;-142.70;74.86
6224;BME280;3145;42.726;23.342;2023-05-24T01:36:11;72295.00;;;-142.70;74.50
6224;BME280;3145;42.726;23.342;2023-05-24T01:38:38;72301.03;;;-142.70;74.58
6224;BME280;3145;42.726;23.342;2023-05-24T01:41:14;72301.03;;;-142.70;75.01
6224;BME280;3145;42.726;23.342;2023-05-24T01:43:51;72307.06;;;-142.70;74.69
6224;BME280;3145;42.726;23.342;2023-05-24T01:46:26;72303.06;;;-142.70;74.87
6224;BME280;3145;42.726;23.342;2023-05-24T01:49:00;72305.06;;;-142.70;75.11
6224;BME280;3145;42.726;23.342;2023-05-24T01:51:39;72311.09;;;-142.70;75.26
6224;BME280;3145;42.726;23.342;2023-05-24T01:54:07;72315.13;;;-142.70;75.68
6224;BME280;3145;42.726;23.342;2023-05-24T01:56:34;72319.16;;;-142.70;75.87
6224;BME280;3145;42.726;23.342;2023-05-24T01:59:05;72319.16;;;-142.70;76.40
6224;BME280;3145;42.726;23.342;2023-05-24T02:01:33;72319.16;;;-142.70;76.54
6224;BME280;3145;42.726;23.342;2023-05-24T02:04:00;72317.16;;;-142.70;76.38
6224;BME280;3145;42.726;23.342;2023-05-24T02:06:27;72307.06;;;-142.70;75.99
6224;BME280;3145;42.726;23.342;2023-05-24T02:08:54;72319.16;;;-142.70;75.89
6224;BME280;3145;42.726;23.342;2023-05-24T02:11:20;72319.16;;;-142.70;75.89
6224;BME280;3145;42.726;23.342;2023-05-24T02:13:47;72321.19;;;-142.70;75.92
6224;BME280;3145;42.726;23.342;2023-05-24T02:16:15;72331.25;;;-142.70;75.66
6224;BME280;3145;42.726;23.342;2023-05-24T02:18:42;72335.28;;;-142.70;76.11
6224;BME280;3145;42.726;23.342;2023-05-24T02:21:11;72343.34;;;-142.70;76.62
6224;BME280;3145;42.726;23.342;2023-05-24T02:23:37;72337.28;;;-142.70;76.67
6224;BME280;3145;42.726;23.342;2023-05-24T02:26:04;72347.38;;;-142.70;76.75
6224;BME280;3145;42.726;23.342;2023-05-24T02:28:31;72349.38;;;-142.70;77.22
6224;BME280;3145;42.726;23.342;2023-05-24T02:30:58;72351.41;;;-142.70;77.47
6224;BME280;3145;42.726;23.342;2023-05-24T02:33:26;72359.44;;;-142.70;77.16
6224;BME280;3145;42.726;23.342;2023-05-24T02:35:54;72363.47;;;-142.70;77.20
6224;BME280;3145;42.726;23.342;2023-05-24T02:38:21;72371.53;;;-142.70;76.87
6224;BME280;3145;42.726;23.342;2023-05-24T02:40:48;72375.56;;;-142.70;76.93
6224;BME280;3145;42.726;23.342;2023-05-24T02:43:15;72385.63;;;-142.70;77.32
6224;BME280;3145;42.726;23.342;2023-05-24T02:45:41;72391.69;;;-142.70;78.08
6224;BME280;3145;42.726;23.342;2023-05-24T02:48:08;72397.72;;;-142.70;78.35
6224;BME280;3145;42.726;23.342;2023-05-24T02:50:36;72395.72;;;-142.70;78.66
6224;BME280;3145;42.726;23.342;2023-05-24T02:53:03;72395.72;;;-142.70;78.70
6224;BME280;3145;42.726;23.342;2023-05-24T02:55:29;72389.66;;;-142.70;78.79
6224;BME280;3145;42.726;23.342;2023-05-24T02:57:56;72389.66;;;-142.70;79.11
6224;BME280;3145;42.726;23.342;2023-05-24T03:00:23;72379.59;;;-142.70;79.10
6224;BME280;3145;42.726;23.342;2023-05-24T03:02:50;72379.59;;;-142.70;78.96
6224;BME280;3145;42.726;23.342;2023-05-24T03:05:16;72377.59;;;-142.70;78.61
6224;BME280;3145;42.726;23.342;2023-05-24T03:07:45;72381.59;;;-142.70;78.25
6224;BME280;3145;42.726;23.342;2023-05-24T03:10:12;72375.56;;;-142.70;78.20
6224;BME280;3145;42.726;23.342;2023-05-24T03:12:39;72379.59;;;-142.70;77.73
6224;BME280;3145;42.726;23.342;2023-05-24T03:15:07;72387.66;;;-142.70;77.66
6224;BME280;3145;42.726;23.342;2023-05-24T03:17:34;72387.66;;;-142.70;77.34
6224;BME280;3145;42.726;23.342;2023-05-24T03:20:01;72383.63;;;-142.70;77.64
6224;BME280;3145;42.726;23.342;2023-05-24T03:22:30;72385.63;;;-142.70;76.89
6224;BME280;3145;42.726;23.342;2023-05-24T03:24:59;72387.66;;;-142.70;76.70
6224;BME280;3145;42.726;23.342;2023-05-24T03:27:26;72369.53;;;-142.70;76.84
6224;BME280;3145;42.726;23.342;2023-05-24T03:29:52;72351.41;;;-142.70;76.67
6224;BME280;3145;42.726;23.342;2023-05-24T03:32:19;72335.28;;;-142.70;76.29
6224;BME280;3145;42.726;23.342;2023-05-24T03:34:46;72317.16;;;-142.70;76.39
6224;BME280;3145;42.726;23.342;2023-05-24T03:37:12;72286.94;;;-142.70;76.02
6224;BME280;3145;42.726;23.342;2023-05-24T03:39:39;72262.75;;;-142.70;75.38
6224;BME280;3145;42.726;23.342;2023-05-24T03:42:07;72234.56;;;-142.70;75.30
6224;BME280;3145;42.726;23.342;2023-05-24T03:44:34;72210.38;;;-142.70;74.19
6224;BME280;3145;42.726;23.342;2023-05-24T03:47:01;72190.25;;;-142.70;73.73
6224;BME280;3145;42.726;23.342;2023-05-24T03:49:28;72160.03;;;-142.70;72.97
6224;BME280;3145;42.726;23.342;2023-05-24T03:51:54;72121.75;;;-142.70;72.24
6224;BME280;3145;42.726;23.342;2023-05-24T03:54:21;72103.63;;;-142.70;71.19
6224;BME280;3145;42.726;23.342;2023-05-24T03:56:48;72069.38;;;-142.70;70.53
6224;BME280;3145;42.726;23.342;2023-05-24T03:59:18;72037.16;;;-142.70;68.35
6224;BME280;3145;42.726;23.342;2023-05-24T04:01:46;72008.97;;;-142.70;67.39
6224;BME280;3145;42.726;23.342;2023-05-24T04:04:12;71984.78;;;-142.70;65.84
6224;BME280;3145;42.726;23.342;2023-05-24T04:06:39;71944.50;;;-142.70;64.22
6224;BME280;3145;42.726;23.342;2023-05-24T04:09:06;71930.41;;;-142.70;62.39
6224;BME280;3145;42.726;23.342;2023-05-24T04:11:34;71896.16;;;-142.70;61.20
6224;BME280;3145;42.726;23.342;2023-05-24T04:14:01;71912.28;;;-142.70;57.89
6224;BME280;3145;42.726;23.342;2023-05-24T04:16:30;71896.16;;;-142.70;58.01
6224;BME280;3145;42.726;23.342;2023-05-24T04:18:58;71872.00;;;-142.70;58.11
6224;BME280;3145;42.726;23.342;2023-05-24T04:21:26;71863.94;;;-142.70;55.73
6224;BME280;3145;42.726;23.342;2023-05-24T04:23:53;71859.91;;;-142.70;55.96
6224;BME280;3145;42.726;23.342;2023-05-24T04:26:20;71823.66;;;-142.70;55.37
6224;BME280;3145;42.726;23.342;2023-05-24T04:28:47;71789.41;;;-142.70;54.59
6224;BME280;3145;42.726;23.342;2023-05-24T04:31:14;71759.22;;;-142.70;53.11
6224;BME280;3145;42.726;23.342;2023-05-24T04:33:42;71759.22;;;-142.70;51.15
6224;BME280;3145;42.726;23.342;2023-05-24T04:36:09;71763.25;;;-142.70;51.87
6224;BME280;3145;42.726;23.342;2023-05-24T04:38:36;71737.06;;;-142.70;51.72
6224;BME280;3145;42.726;23.342;2023-05-24T04:41:03;71710.88;;;-142.70;51.47
6224;BME280;3145;42.726;23.342;2023-05-24T04:43:31;71674.63;;;-142.70;50.62
6224;BME280;3145;42.726;23.342;2023-05-24T04:45:58;71652.47;;;-142.70;49.39
6224;BME280;3145;42.726;23.342;2023-05-24T04:48:24;71626.28;;;-142.70;48.58
6224;BME280;3145;42.726;23.342;2023-05-24T04:50:54;71594.06;;;-142.70;47.83
6224;BME280;3145;42.726;23.342;2023-05-24T04:53:21;71710.88;;;-142.70;47.35
6224;BME280;3145;42.726;23.342;2023-05-24T04:55:49;71759.22;;;-142.70;49.50
6224;BME280;3145;42.726;23.342;2023-05-24T04:58:16;71735.03;;;-142.70;49.55
6224;BME280;3145;42.726;23.342;2023-05-24T05:00:43;71799.50;;;-142.70;50.85
6224;BME280;3145;42.726;23.342;2023-05-24T05:03:10;71819.63;;;-142.70;51.24
6224;BME280;3145;42.726;23.342;2023-05-24T05:05:37;71805.53;;;-142.70;51.42
6224;BME280;3145;42.726;23.342;2023-05-24T05:08:05;71722.97;;;-142.70;51.47
6224;BME280;3145;42.726;23.342;2023-05-24T05:10:32;71670.59;;;-142.70;49.16
6224;BME280;3145;42.726;23.342;2023-05-24T05:12:59;71606.16;;;-142.70;48.40
6224;BME280;3145;42.726;23.342;2023-05-24T05:15:26;71557.81;;;-142.70;47.60
6224;BME280;3145;42.726;23.342;2023-05-24T05:17:53;71571.91;;;-142.70;46.14
6224;BME280;3145;42.726;23.342;2023-05-24T05:20:21;71600.09;;;-142.70;47.34
6224;BME280;3145;42.726;23.342;2023-05-24T05:22:48;71614.19;;;-142.70;47.29
6224;BME280;3145;42.726;23.342;2023-05-24T05:25:16;71586.00;;;-142.70;46.80
6224;BME280;3145;42.726;23.342;2023-05-24T05:27:43;71557.81;;;-142.70;47.01
6224;BME280;3145;42.726;23.342;2023-05-24T05:30:10;71525.59;;;-142.70;46.37
6224;BME280;3145;42.726;23.342;2023-05-24T05:32:37;71467.19;;;-142.70;45.83
6224;BME280;3145;42.726;23.342;2023-05-24T05:35:05;71430.94;;;-142.70;44.91
6224;BME280;3145;42.726;23.342;2023-05-24T05:37:32;71436.97;;;-142.70;44.14
6224;BME280;3145;42.726;23.342;2023-05-24T05:39:58;71517.53;;;-142.70;44.84
6224;BME280;3145;42.726;23.342;2023-05-24T05:42:27;71467.19;;;-142.70;44.40
6224;BME280;3145;42.726;23.342;2023-05-24T05:44:53;71447.03;;;-142.70;43.95
6224;BME280;3145;42.726;23.342;2023-05-24T05:47:22;71424.91;;;-142.70;44.31
6224;BME280;3145;42.726;23.342;2023-05-24T05:49:49;71368.50;;;-142.70;43.67
6224;BME280;3145;42.726;23.342;2023-05-24T05:52:16;71338.31;;;-142.70;43.31
6224;BME280;3145;42.726;23.342;2023-05-24T05:54:43;71304.06;;;-142.70;42.16
6224;BME280;3145;42.726;23.342;2023-05-24T05:57:09;71300.03;;;-142.70;41.75
6224;BME280;3145;42.726;23.342;2023-05-24T05:59:38;71273.84;;;-142.70;41.15
6224;BME280;3145;42.726;23.342;2023-05-24T06:02:05;71285.94;;;-142.70;41.87
6224;BME280;3145;42.726;23.342;2023-05-24T06:04:32;71251.72;;;-142.70;41.65
6224;BME280;3145;42.726;23.342;2023-05-24T06:06:59;71199.34;;;-142.70;40.92
6224;BME280;3145;42.726;23.342;2023-05-24T06:09:26;71155.06;;;-142.70;40.76
6224;BME280;3145;42.726;23.342;2023-05-24T06:11:53;71108.72;;;-142.70;39.97
6224;BME280;3145;42.726;23.342;2023-05-24T06:14:19;71100.69;;;-142.70;39.67
6224;BME280;3145;42.726;23.342;2023-05-24T06:16:48;71118.81;;;-142.70;39.08
6224;BME280;3145;42.726;23.342;2023-05-24T06:19:16;71106.72;;;-142.70;39.13
6224;BME280;3145;42.726;23.342;2023-05-24T06:21:43;71084.56;;;-142.70;39.11
6224;BME280;3145;42.726;23.342;2023-05-24T06:24:12;71038.25;;;-142.70;38.71
6224;BME280;3145;42.726;23.342;2023-05-24T06:26:39;71040.28;;;-142.70;38.70
6224;BME280;3145;42.726;23.342;2023-05-24T06:29:05;71026.19;;;-142.70;38.35
6224;BME280;3145;42.726;23.342;2023-05-24T06:31:32;71030.19;;;-142.70;37.50
6224;BME280;3145;42.726;23.342;2023-05-24T06:34:01;71066.44;;;-142.70;38.13
6224;BME280;3145;42.726;23.342;2023-05-24T06:36:27;71048.31;;;-142.70;38.15
6224;BME280;3145;42.726;23.342;2023-05-24T06:38:55;71151.03;;;-142.70;38.97
6224;BME280;3145;42.726;23.342;2023-05-24T06:41:22;71102.69;;;-142.70;38.78
6224;BME280;3145;42.726;23.342;2023-05-24T06:43:48;71046.31;;;-142.70;38.68
6224;BME280;3145;42.726;23.342;2023-05-24T06:46:15;71010.06;;;-142.70;38.40
6224;BME280;3145;42.726;23.342;2023-05-24T06:48:42;70995.97;;;-142.70;37.98
6224;BME280;3145;42.726;23.342;2023-05-24T06:51:10;70971.81;;;-142.70;37.60
6224;BME280;3145;42.726;23.342;2023-05-24T06:53:36;71002.00;;;-142.70;38.07
6224;BME280;3145;42.726;23.342;2023-05-24T06:56:03;70945.63;;;-142.70;38.45
6224;BME280;3145;42.726;23.342;2023-05-24T06:58:30;70917.44;;;-142.70;38.03
6224;BME280;3145;42.726;23.342;2023-05-24T07:00:57;70935.56;;;-142.70;36.94
6224;BME280;3145;42.726;23.342;2023-05-24T07:03:23;70895.28;;;-142.70;37.02
6224;BME280;3145;42.726;23.342;2023-05-24T07:05:53;70865.09;;;-142.70;36.94
6224;BME280;3145;42.726;23.342;2023-05-24T07:08:21;70846.97;;;-142.70;35.97
6224;BME280;3145;42.726;23.342;2023-05-24T07:10:48;70875.16;;;-142.70;36.49
6224;BME280;3145;42.726;23.342;2023-05-24T07:13:15;70848.97;;;-142.70;36.57
6224;BME280;3145;42.726;23.342;2023-05-24T07:15:41;70810.72;;;-142.70;35.94
6224;BME280;3145;42.726;23.342;2023-05-24T07:18:08;70770.44;;;-142.70;35.49
6224;BME280;3145;42.726;23.342;2023-05-24T07:20:35;70792.59;;;-142.70;35.49
6224;BME280;3145;42.726;23.342;2023-05-24T07:23:02;70859.06;;;-142.70;36.31
6224;BME280;3145;42.726;23.342;2023-05-24T07:25:30;70848.97;;;-142.70;36.55
6224;BME280;3145;42.726;23.342;2023-05-24T07:27:57;70853.00;;;-142.70;35.78
6224;BME280;3145;42.726;23.342;2023-05-24T07:30:24;70846.97;;;-142.70;36.23
6224;BME280;3145;42.726;23.342;2023-05-24T07:32:51;70834.88;;;-142.70;36.24
6224;BME280;3145;42.726;23.342;2023-05-24T07:35:18;70848.97;;;-142.70;37.18
6224;BME280;3145;42.726;23.342;2023-05-24T07:37:45;70794.63;;;-142.70;35.72
6224;BME280;3145;42.726;23.342;2023-05-24T07:40:12;70750.31;;;-142.70;35.56
6224;BME280;3145;42.726;23.342;2023-05-24T07:42:40;70716.09;;;-142.70;34.40
6224;BME280;3145;42.726;23.342;2023-05-24T07:45:08;70770.44;;;-142.70;35.61
6224;BME280;3145;42.726;23.342;2023-05-24T07:47:35;70770.44;;;-142.70;35.20
6224;BME280;3145;42.726;23.342;2023-05-24T07:50:03;70780.53;;;-142.70;35.33
6224;BME280;3145;42.726;23.342;2023-05-24T07:52:30;70736.22;;;-142.70;35.11
6224;BME280;3145;42.726;23.342;2023-05-24T07:54:56;70683.88;;;-142.70;34.68
6224;BME280;3145;42.726;23.342;2023-05-24T07:57:23;70637.56;;;-142.70;34.32
6224;BME280;3145;42.726;23.342;2023-05-24T07:59:51;70619.44;;;-142.70;34.20
6224;BME280;3145;42.726;23.342;2023-05-24T08:02:18;70659.72;;;-142.70;34.07
6224;BME280;3145;42.726;23.342;2023-05-24T08:04:45;70746.28;;;-142.70;34.36
6224;BME280;3145;42.726;23.342;2023-05-24T08:07:12;70726.16;;;-142.70;34.42
6224;BME280;3145;42.726;23.342;2023-05-24T08:09:38;70714.06;;;-142.70;35.03
6224;BME280;3145;42.726;23.342;2023-05-24T08:12:06;70744.28;;;-142.70;34.65
6224;BME280;3145;42.726;23.342;2023-05-24T08:14:33;70687.91;;;-142.70;35.05
6224;BME280;3145;42.726;23.342;2023-05-24T08:17:02;70637.56;;;-142.70;34.20
6224;BME280;3145;42.726;23.342;2023-05-24T08:19:28;70581.19;;;-142.70;33.41
6224;BME280;3145;42.726;23.342;2023-05-24T08:22:00;70595.28;;;-142.70;32.84
6224;BME280;3145;42.726;23.342;2023-05-24T08:24:29;70623.47;;;-142.70;33.50
6224;BME280;3145;42.726;23.342;2023-05-24T08:26:56;70563.06;;;-142.70;32.33
6224;BME280;3145;42.726;23.342;2023-05-24T08:29:23;70544.94;;;-142.70;30.32
6224;BME280;3145;42.726;23.342;2023-05-24T08:31:49;70496.63;;;-142.70;31.08
6224;BME280;3145;42.726;23.342;2023-05-24T08:34:17;70506.69;;;-142.70;29.21
6224;BME280;3145;42.726;23.342;2023-05-24T08:36:44;70480.53;;;-142.70;29.24
6224;BME280;3145;42.726;23.342;2023-05-24T08:39:11;70591.25;;;-142.70;29.01
6224;BME280;3145;42.726;23.342;2023-05-24T08:41:39;70673.81;;;-142.70;29.87
6224;BME280;3145;42.726;23.342;2023-05-24T08:44:06;70728.16;;;-142.70;30.88
6224;BME280;3145;42.726;23.342;2023-05-24T08:46:34;70708.03;;;-142.70;31.30
6224;BME280;3145;42.726;23.342;2023-05-24T08:49:01;70716.09;;;-142.70;30.27
6224;BME280;3145;42.726;23.342;2023-05-24T08:51:30;70687.91;;;-142.70;30.44
6224;BME280;3145;42.726;23.342;2023-05-24T08:53:58;70627.50;;;-142.70;29.12
6224;BME280;3145;42.726;23.342;2023-05-24T08:56:25;70681.88;;;-142.70;29.07
6224;BME280;3145;42.726;23.342;2023-05-24T08:58:53;70770.44;;;-142.70;30.22
6224;BME280;3145;42.726;23.342;2023-05-24T09:01:20;70764.41;;;-142.70;30.75
6224;BME280;3145;42.726;23.342;2023-05-24T09:03:49;70766.44;;;-142.70;31.09
6224;BME280;3145;42.726;23.342;2023-05-24T09:06:17;70720.13;;;-142.70;30.67
6224;BME280;3145;42.726;23.342;2023-05-24T09:08:46;70667.78;;;-142.70;30.12
6224;BME280;3145;42.726;23.342;2023-05-24T09:11:17;70609.38;;;-142.70;30.40
6224;BME280;3145;42.726;23.342;2023-05-24T09:13:44;70540.94;;;-142.70;29.13
6224;BME280;3145;42.726;23.342;2023-05-24T09:16:11;70526.84;;;-142.70;29.26
6224;BME280;3145;42.726;23.342;2023-05-24T09:18:39;70482.53;;;-142.70;29.24
6224;BME280;3145;42.726;23.342;2023-05-24T09:21:05;70478.50;;;-142.70;29.30
6224;BME280;3145;42.726;23.342;2023-05-24T09:23:33;70464.41;;;-142.70;28.79
6224;BME280;3145;42.726;23.342;2023-05-24T09:26:05;70434.22;;;-142.70;29.32
6224;BME280;3145;42.726;23.342;2023-05-24T09:28:33;70422.13;;;-142.70;28.47
6224;BME280;3145;42.726;23.342;2023-05-24T09:31:01;70502.69;;;-142.70;28.53
6224;BME280;3145;42.726;23.342;2023-05-24T09:33:29;70563.06;;;-142.70;29.14
6224;BME280;3145;42.726;23.342;2023-05-24T09:35:57;70591.25;;;-142.70;29.97
6224;BME280;3145;42.726;23.342;2023-05-24T09:38:24;70641.59;;;-142.70;29.44
6224;BME280;3145;42.726;23.342;2023-05-24T09:41:03;70627.50;;;-142.70;29.27
6224;BME280;3145;42.726;23.342;2023-05-24T09:43:31;70639.59;;;-142.70;30.22
6224;BME280;3145;42.726;23.342;2023-05-24T09:46:01;70631.53;;;-142.70;30.01
6224;BME280;3145;42.726;23.342;2023-05-24T09:48:29;70645.63;;;-142.70;30.02
6224;BME280;3145;42.726;23.342;2023-05-24T09:51:02;70687.91;;;-142.70;29.65
6224;BME280;3145;42.726;23.342;2023-05-24T09:53:31;70691.94;;;-142.70;29.42
6224;BME280;3145;42.726;23.342;2023-05-24T09:55:59;70720.13;;;-142.70;29.79
6224;BME280;3145;42.726;23.342;2023-05-24T09:58:31;70663.75;;;-142.70;29.25
6224;BME280;3145;42.726;23.342;2023-05-24T10:01:05;70669.78;;;-142.70;29.05
6224;BME280;3145;42.726;23.342;2023-05-24T10:03:33;70615.41;;;-142.70;28.68
6224;BME280;3145;42.726;23.342;2023-05-24T10:06:00;70655.69;;;-142.70;29.60
6224;BME280;3145;42.726;23.342;2023-05-24T10:08:29;70695.97;;;-142.70;29.59
6224;BME280;3145;42.726;23.342;2023-05-24T10:10:56;70653.69;;;-142.70;29.37
6224;BME280;3145;42.726;23.342;2023-05-24T10:13:24;70653.69;;;-142.70;29.14
6224;BME280;3145;42.726;23.342;2023-05-24T10:15:53;70591.25;;;-142.70;28.36
6224;BME280;3145;42.726;23.342;2023-05-24T10:18:20;70530.84;;;-142.70;28.74
6224;BME280;3145;42.726;23.342;2023-05-24T10:20:47;70555.03;;;-142.70;28.76
6224;BME280;3145;42.726;23.342;2023-05-24T10:23:19;70567.09;;;-142.70;28.49
6224;BME280;3145;42.726;23.342;2023-05-24T10:25:50;70587.22;;;-142.70;29.57
6224;BME280;3145;42.726;23.342;2023-05-24T10:28:19;70522.81;;;-142.70;29.49
6224;BME280;3145;42.726;23.342;2023-05-24T10:30:56;70500.66;;;-142.70;27.33
6224;BME280;3145;42.726;23.342;2023-05-24T10:33:26;70514.75;;;-142.70;26.61
6224;BME280;3145;42.726;23.342;2023-05-24T10:35:53;70514.75;;;-142.70;27.48
6224;BME280;3145;42.726;23.342;2023-05-24T10:38:22;70490.59;;;-142.70;28.29
6224;BME280;3145;42.726;23.342;2023-05-24T10:40:49;70478.50;;;-142.70;27.17
6224;BME280;3145;42.726;23.342;2023-05-24T10:43:16;70538.91;;;-142.70;27.41
6224;BME280;3145;42.726;23.342;2023-05-24T10:45:47;70597.31;;;-142.70;28.86
6224;BME280;3145;42.726;23.342;2023-05-24T10:48:35;70579.19;;;-142.70;27.91
6224;BME280;3145;42.726;23.342;2023-05-24T10:51:32;70555.03;;;-142.70;28.13
6224;BME280;3145;42.726;23.342;2023-05-24T10:54:15;70450.31;;;-142.70;27.53
6224;BME280;3145;42.726;23.342;2023-05-24T10:56:44;70434.22;;;-142.70;27.58
6224;BME280;3145;42.726;23.342;2023-05-24T10:59:28;70450.31;;;-142.70;27.55
6224;BME280;3145;42.726;23.342;2023-05-24T11:01:57;70430.19;;;-142.70;27.94
6224;BME280;3145;42.726;23.342;2023-05-24T11:04:30;70381.88;;;-142.70;27.13
6224;BME280;3145;42.726;23.342;2023-05-24T11:07:00;70341.63;;;-142.70;26.76
6224;BME280;3145;42.726;23.342;2023-05-24T11:09:27;70355.72;;;-142.70;27.09
6224;BME280;3145;42.726;23.342;2023-05-24T11:11:55;70341.63;;;-142.70;27.13
6224;BME280;3145;42.726;23.342;2023-05-24T11:14:25;70397.97;;;-142.70;27.15
6224;BME280;3145;42.726;23.342;2023-05-24T11:16:53;70393.97;;;-142.70;27.04
6224;BME280;3145;42.726;23.342;2023-05-24T11:19:22;70402.00;;;-142.70;27.65
6224;BME280;3145;42.726;23.342;2023-05-24T11:21:51;70462.41;;;-142.70;27.40
6224;BME280;3145;42.726;23.342;2023-05-24T11:24:23;70522.81;;;-142.70;28.05
6224;BME280;3145;42.726;23.342;2023-05-24T11:26:50;70452.34;;;-142.70;27.13
6224;BME280;3145;42.726;23.342;2023-05-24T11:29:18;70395.97;;;-142.70;27.59
6224;BME280;3145;42.726;23.342;2023-05-24T11:31:47;70333.56;;;-142.70;27.17
6224;BME280;3145;42.726;23.342;2023-05-24T11:34:15;70309.41;;;-142.70;26.23
6224;BME280;3145;42.726;23.342;2023-05-24T11:36:42;70293.28;;;-142.70;26.77
6224;BME280;3145;42.726;23.342;2023-05-24T11:39:10;70365.78;;;-142.70;26.93
6224;BME280;3145;42.726;23.342;2023-05-24T11:41:38;70373.81;;;-142.70;26.78
6224;BME280;3145;42.726;23.342;2023-05-24T11:44:06;70393.97;;;-142.70;26.64
6224;BME280;3145;42.726;23.342;2023-05-24T11:46:34;70393.97;;;-142.70;27.53
6224;BME280;3145;42.726;23.342;2023-05-24T11:49:01;70434.22;;;-142.70;26.75
6224;BME280;3145;42.726;23.342;2023-05-24T11:51:28;70402.00;;;-142.70;26.80
6224;BME280;3145;42.726;23.342;2023-05-24T11:53:56;70359.72;;;-142.70;27.18
6224;BME280;3145;42.726;23.342;2023-05-24T11:56:24;70404.03;;;-142.70;26.97
6224;BME280;3145;42.726;23.342;2023-05-24T11:58:55;70408.06;;;-142.70;28.11
6224;BME280;3145;42.726;23.342;2023-05-24T12:01:25;70482.53;;;-142.70;27.17
6224;BME280;3145;42.726;23.342;2023-05-24T12:03:53;70480.53;;;-142.70;27.39
6224;BME280;3145;42.726;23.342;2023-05-24T12:06:20;70426.16;;;-142.70;27.25
6224;BME280;3145;42.726;23.342;2023-05-24T12:08:47;70391.94;;;-142.70;26.62
6224;BME280;3145;42.726;23.342;2023-05-24T12:11:15;70395.97;;;-142.70;27.38
6224;BME280;3145;42.726;23.342;2023-05-24T12:13:43;70395.97;;;-142.70;27.31
6224;BME280;3145;42.726;23.342;2023-05-24T12:16:10;70416.09;;;-142.70;28.13
6224;BME280;3145;42.726;23.342;2023-05-24T12:18:39;70416.09;;;-142.70;27.93
6224;BME280;3145;42.726;23.342;2023-05-24T12:21:08;70408.06;;;-142.70;27.42
6224;BME280;3145;42.726;23.342;2023-05-24T12:23:36;70434.22;;;-142.70;27.28
6224;BME280;3145;42.726;23.342;2023-05-24T12:26:04;70432.22;;;-142.70;27.61
6224;BME280;3145;42.726;23.342;2023-05-24T12:28:34;70470.47;;;-142.70;27.76
6224;BME280;3145;42.726;23.342;2023-05-24T12:31:03;70375.84;;;-142.70;27.60
6224;BME280;3145;42.726;23.342;2023-05-24T12:33:31;70317.47;;;-142.70;26.68
6224;BME280;3145;42.726;23.342;2023-05-24T12:35:58;70285.25;;;-142.70;26.29
6224;BME280;3145;42.726;23.342;2023-05-24T12:38:26;70242.97;;;-142.70;26.17
6224;BME280;3145;42.726;23.342;2023-05-24T12:40:53;70208.75;;;-142.70;26.44
6224;BME280;3145;42.726;23.342;2023-05-24T12:43:20;70228.88;;;-142.70;26.97
6224;BME280;3145;42.726;23.342;2023-05-24T12:45:47;70273.16;;;-142.70;27.05
6224;BME280;3145;42.726;23.342;2023-05-24T12:48:15;70365.78;;;-142.70;27.58
6224;BME280;3145;42.726;23.342;2023-05-24T12:50:42;70389.94;;;-142.70;27.40
6224;BME280;3145;42.726;23.342;2023-05-24T12:53:09;70361.75;;;-142.70;27.88
6224;BME280;3145;42.726;23.342;2023-05-24T12:55:36;70341.63;;;-142.70;27.96
6224;BME280;3145;42.726;23.342;2023-05-24T12:58:02;70313.44;;;-142.70;27.70